This is the latest recevied weather packets stored in our database for station/object KI4MRC. If no packets are shown the sender has not sent any weather packets the latest 10 day(s).
| Time | Temp. | Humidity | Pressure | Rain* | Wind** | Luminosity | Snow |
|---|---|---|---|---|---|---|---|
| 1777992616 | 27.22° C | 77% | 1015.2 hPa | 0 mm | - | 343 W/m² | - |
| 1777992313 | 26.11° C | 81% | 1015.3 hPa | 0 mm | - | 615 W/m² | - |
| 1777992010 | 26.67° C | 78% | 1015.4 hPa | 0 mm | - | 140 W/m² | - |
| 1777991709 | 27.22° C | 77% | 1015.5 hPa | 0 mm | - | 227 W/m² | - |
| 1777991405 | 27.78° C | 76% | 1015.4 hPa | 0 mm | - | 196 W/m² | - |
| 1777991102 | 27.78° C | 75% | 1015.4 hPa | 0 mm | - | 466 W/m² | - |
| 1777990800 | 27.78° C | 76% | 1015.1 hPa | 0 mm | - | 164 W/m² | - |
| 1777990496 | 27.78° C | 76% | 1015.1 hPa | 0 mm | - | 760 W/m² | - |
| 1777989890 | 26.67° C | 80% | 1015.1 hPa | 0 mm | - | 662 W/m² | - |
| 1777989586 | 26.67° C | 78% | 1015 hPa | 0 mm | - | 154 W/m² | - |
| 1777989283 | 27.78° C | 79% | 1015.2 hPa | 0 mm | - | 709 W/m² | - |
| 1777988979 | 27.22° C | 81% | 1014.9 hPa | 0 mm | - | 658 W/m² | - |
| 1777988677 | 26.67° C | 82% | 1015 hPa | 0 mm | - | 583 W/m² | - |
| 1777988373 | 26.11° C | 85% | 1015 hPa | 0.51 mm | - | 511 W/m² | - |
| 1777988071 | 25.56° C | 85% | 1015.2 hPa | 0.51 mm | - | 503 W/m² | - |
| 1777987766 | 25.56° C | 87% | 1015.1 hPa | 0 mm | - | 370 W/m² | - |
| 1777987463 | 24.44° C | 90% | 1015.1 hPa | 0 mm | - | 286 W/m² | - |
| 1777987160 | 24.44° C | 91% | 1015.1 hPa | 0 mm | - | 39 W/m² | - |
| 1777986857 | 24.44° C | 91% | 1015.2 hPa | 0 mm | - | 45 W/m² | - |
| 1777986555 | 24.44° C | 93% | 1014.8 hPa | 0 mm | - | 57 W/m² | - |
| 1777986252 | 24.44° C | 94% | 1014.9 hPa | 0 mm | - | 160 W/m² | - |
| 1777985949 | 23.89° C | 96% | 1014.9 hPa | 0 mm | - | 172 W/m² | - |
| 1777985647 | 23.89° C | 97% | 1014.7 hPa | 0 mm | - | 162 W/m² | - |
| 1777985343 | 23.89° C | 97% | 1014.6 hPa | 0 mm | - | 120 W/m² | - |
| 1777985040 | 23.89° C | 98% | 1014.7 hPa | 0 mm | - | 109 W/m² | - |
* Rain latest hour (hover to see other rain measurements)
** Current wind speed in m/s (hover to see current wind gust speed)